sensor_id;sensor_type;location;lat;lon;timestamp;P1;durP1;ratioP1;P2;durP2;ratioP2
2456;SDS011;1240;48.018;7.816;2022-07-29T00:01:08;7.07;;;4.57;;
2456;SDS011;1240;48.018;7.816;2022-07-29T00:03:33;4.73;;;4.43;;
2456;SDS011;1240;48.018;7.816;2022-07-29T00:05:58;5.57;;;3.88;;
2456;SDS011;1240;48.018;7.816;2022-07-29T00:08:24;4.43;;;4.13;;
2456;SDS011;1240;48.018;7.816;2022-07-29T00:10:49;4.97;;;3.95;;
2456;SDS011;1240;48.018;7.816;2022-07-29T00:13:14;3.83;;;3.53;;
2456;SDS011;1240;48.018;7.816;2022-07-29T00:15:39;4.45;;;4.15;;
2456;SDS011;1240;48.018;7.816;2022-07-29T00:18:04;5.33;;;4.80;;
2456;SDS011;1240;48.018;7.816;2022-07-29T00:20:30;3.57;;;3.37;;
2456;SDS011;1240;48.018;7.816;2022-07-29T00:22:55;4.53;;;4.13;;
2456;SDS011;1240;48.018;7.816;2022-07-29T00:25:20;5.40;;;3.97;;
2456;SDS011;1240;48.018;7.816;2022-07-29T00:27:45;4.53;;;4.20;;
2456;SDS011;1240;48.018;7.816;2022-07-29T00:30:10;4.30;;;3.90;;
2456;SDS011;1240;48.018;7.816;2022-07-29T00:32:35;5.10;;;4.77;;
2456;SDS011;1240;48.018;7.816;2022-07-29T00:35:01;4.45;;;4.18;;
2456;SDS011;1240;48.018;7.816;2022-07-29T00:37:26;4.80;;;4.35;;
2456;SDS011;1240;48.018;7.816;2022-07-29T00:39:51;4.73;;;4.37;;
2456;SDS011;1240;48.018;7.816;2022-07-29T00:42:16;4.17;;;3.80;;
2456;SDS011;1240;48.018;7.816;2022-07-29T00:44:41;4.03;;;3.83;;
2456;SDS011;1240;48.018;7.816;2022-07-29T00:47:07;4.17;;;3.87;;
2456;SDS011;1240;48.018;7.816;2022-07-29T00:49:32;7.50;;;4.40;;
2456;SDS011;1240;48.018;7.816;2022-07-29T00:52:00;5.23;;;4.00;;
2456;SDS011;1240;48.018;7.816;2022-07-29T00:54:25;4.50;;;4.20;;
2456;SDS011;1240;48.018;7.816;2022-07-29T00:56:50;4.57;;;4.27;;
2456;SDS011;1240;48.018;7.816;2022-07-29T00:59:15;4.30;;;4.00;;
2456;SDS011;1240;48.018;7.816;2022-07-29T01:01:40;4.32;;;3.92;;
2456;SDS011;1240;48.018;7.816;2022-07-29T01:04:05;5.10;;;3.83;;
2456;SDS011;1240;48.018;7.816;2022-07-29T01:06:31;5.13;;;4.60;;
2456;SDS011;1240;48.018;7.816;2022-07-29T01:08:56;4.50;;;4.20;;
2456;SDS011;1240;48.018;7.816;2022-07-29T01:11:22;4.67;;;4.27;;
2456;SDS011;1240;48.018;7.816;2022-07-29T01:13:48;4.43;;;4.00;;
2456;SDS011;1240;48.018;7.816;2022-07-29T01:16:15;4.97;;;4.57;;
2456;SDS011;1240;48.018;7.816;2022-07-29T01:18:44;5.13;;;4.57;;
2456;SDS011;1240;48.018;7.816;2022-07-29T01:21:31;4.50;;;4.10;;
2456;SDS011;1240;48.018;7.816;2022-07-29T01:31:47;4.87;;;4.57;;
2456;SDS011;1240;48.018;7.816;2022-07-29T01:34:21;5.53;;;4.93;;
2456;SDS011;1240;48.018;7.816;2022-07-29T01:36:50;5.13;;;4.63;;
2456;SDS011;1240;48.018;7.816;2022-07-29T01:39:19;5.40;;;4.60;;
2456;SDS011;1240;48.018;7.816;2022-07-29T01:41:49;7.10;;;4.40;;
2456;SDS011;1240;48.018;7.816;2022-07-29T01:44:20;4.67;;;4.37;;
2456;SDS011;1240;48.018;7.816;2022-07-29T01:46:52;4.50;;;4.20;;
2456;SDS011;1240;48.018;7.816;2022-07-29T01:49:24;6.63;;;4.70;;
2456;SDS011;1240;48.018;7.816;2022-07-29T01:51:51;4.20;;;3.90;;
2456;SDS011;1240;48.018;7.816;2022-07-29T01:54:29;4.70;;;4.40;;
2456;SDS011;1240;48.018;7.816;2022-07-29T01:56:55;3.73;;;3.53;;
2456;SDS011;1240;48.018;7.816;2022-07-29T01:59:21;7.20;;;4.30;;
2456;SDS011;1240;48.018;7.816;2022-07-29T02:01:47;4.57;;;4.23;;
2456;SDS011;1240;48.018;7.816;2022-07-29T02:04:12;7.97;;;4.63;;
2456;SDS011;1240;48.018;7.816;2022-07-29T02:06:39;4.40;;;4.10;;
2456;SDS011;1240;48.018;7.816;2022-07-29T02:09:05;4.17;;;3.77;;
2456;SDS011;1240;48.018;7.816;2022-07-29T02:11:31;5.73;;;4.70;;
2456;SDS011;1240;48.018;7.816;2022-07-29T02:13:58;4.70;;;4.40;;
2456;SDS011;1240;48.018;7.816;2022-07-29T02:16:24;4.07;;;3.70;;
2456;SDS011;1240;48.018;7.816;2022-07-29T02:18:52;4.33;;;4.03;;
2456;SDS011;1240;48.018;7.816;2022-07-29T02:21:25;3.83;;;3.63;;
2456;SDS011;1240;48.018;7.816;2022-07-29T02:23:51;5.40;;;5.00;;
2456;SDS011;1240;48.018;7.816;2022-07-29T02:26:17;4.77;;;4.30;;
2456;SDS011;1240;48.018;7.816;2022-07-29T02:28:44;4.37;;;4.00;;
2456;SDS011;1240;48.018;7.816;2022-07-29T02:31:09;5.10;;;4.70;;
2456;SDS011;1240;48.018;7.816;2022-07-29T02:33:35;4.77;;;4.37;;
2456;SDS011;1240;48.018;7.816;2022-07-29T02:36:02;5.13;;;4.73;;
2456;SDS011;1240;48.018;7.816;2022-07-29T02:38:27;5.00;;;4.33;;
2456;SDS011;1240;48.018;7.816;2022-07-29T02:40:53;5.60;;;5.10;;
2456;SDS011;1240;48.018;7.816;2022-07-29T02:43:20;4.27;;;3.87;;
2456;SDS011;1240;48.018;7.816;2022-07-29T02:45:46;5.40;;;4.33;;
2456;SDS011;1240;48.018;7.816;2022-07-29T02:48:13;7.07;;;4.80;;
2456;SDS011;1240;48.018;7.816;2022-07-29T02:50:49;4.63;;;4.03;;
2456;SDS011;1240;48.018;7.816;2022-07-29T02:53:17;5.20;;;4.30;;
2456;SDS011;1240;48.018;7.816;2022-07-29T02:55:44;6.03;;;4.43;;
2456;SDS011;1240;48.018;7.816;2022-07-29T03:00:39;10.23;;;6.17;;
2456;SDS011;1240;48.018;7.816;2022-07-29T03:03:07;5.20;;;4.80;;
2456;SDS011;1240;48.018;7.816;2022-07-29T03:05:33;4.63;;;4.43;;
2456;SDS011;1240;48.018;7.816;2022-07-29T03:08:02;5.70;;;5.20;;
2456;SDS011;1240;48.018;7.816;2022-07-29T03:10:28;5.43;;;4.30;;
2456;SDS011;1240;48.018;7.816;2022-07-29T03:12:54;4.37;;;4.17;;
2456;SDS011;1240;48.018;7.816;2022-07-29T03:15:20;4.20;;;3.60;;
2456;SDS011;1240;48.018;7.816;2022-07-29T03:17:45;5.00;;;4.63;;
2456;SDS011;1240;48.018;7.816;2022-07-29T03:20:11;5.47;;;5.07;;
2456;SDS011;1240;48.018;7.816;2022-07-29T03:22:38;4.90;;;4.60;;
2456;SDS011;1240;48.018;7.816;2022-07-29T03:25:10;4.70;;;4.40;;
2456;SDS011;1240;48.018;7.816;2022-07-29T03:27:35;5.30;;;4.90;;
2456;SDS011;1240;48.018;7.816;2022-07-29T03:30:01;6.70;;;5.27;;
2456;SDS011;1240;48.018;7.816;2022-07-29T03:32:26;5.27;;;4.87;;
2456;SDS011;1240;48.018;7.816;2022-07-29T03:34:51;5.40;;;4.90;;
2456;SDS011;1240;48.018;7.816;2022-07-29T03:37:16;4.20;;;3.80;;
2456;SDS011;1240;48.018;7.816;2022-07-29T03:39:41;4.93;;;4.63;;
2456;SDS011;1240;48.018;7.816;2022-07-29T03:42:08;4.60;;;4.30;;
2456;SDS011;1240;48.018;7.816;2022-07-29T03:44:35;6.30;;;5.70;;
2456;SDS011;1240;48.018;7.816;2022-07-29T03:47:01;4.87;;;4.43;;
2456;SDS011;1240;48.018;7.816;2022-07-29T03:49:26;5.70;;;5.23;;
2456;SDS011;1240;48.018;7.816;2022-07-29T03:51:52;9.23;;;4.70;;
2456;SDS011;1240;48.018;7.816;2022-07-29T03:54:17;5.23;;;4.83;;
2456;SDS011;1240;48.018;7.816;2022-07-29T03:56:43;5.50;;;4.30;;
2456;SDS011;1240;48.018;7.816;2022-07-29T03:59:09;4.83;;;4.50;;
2456;SDS011;1240;48.018;7.816;2022-07-29T04:01:35;5.37;;;4.93;;
2456;SDS011;1240;48.018;7.816;2022-07-29T04:04:01;5.03;;;4.63;;
2456;SDS011;1240;48.018;7.816;2022-07-29T04:06:26;6.00;;;4.40;;
2456;SDS011;1240;48.018;7.816;2022-07-29T04:08:51;6.03;;;4.70;;
2456;SDS011;1240;48.018;7.816;2022-07-29T04:11:16;7.67;;;5.50;;
2456;SDS011;1240;48.018;7.816;2022-07-29T04:13:41;6.07;;;5.13;;
2456;SDS011;1240;48.018;7.816;2022-07-29T04:16:07;5.43;;;4.93;;
2456;SDS011;1240;48.018;7.816;2022-07-29T04:18:32;5.68;;;5.25;;
2456;SDS011;1240;48.018;7.816;2022-07-29T04:20:57;6.47;;;4.70;;
2456;SDS011;1240;48.018;7.816;2022-07-29T04:23:22;6.67;;;5.03;;
2456;SDS011;1240;48.018;7.816;2022-07-29T04:25:47;6.25;;;5.15;;
2456;SDS011;1240;48.018;7.816;2022-07-29T04:28:12;7.57;;;4.83;;
2456;SDS011;1240;48.018;7.816;2022-07-29T04:30:38;5.60;;;5.10;;
2456;SDS011;1240;48.018;7.816;2022-07-29T04:33:04;5.27;;;4.87;;
2456;SDS011;1240;48.018;7.816;2022-07-29T04:35:30;4.97;;;4.60;;
2456;SDS011;1240;48.018;7.816;2022-07-29T04:37:56;6.03;;;5.07;;
2456;SDS011;1240;48.018;7.816;2022-07-29T04:40:21;5.73;;;4.13;;
2456;SDS011;1240;48.018;7.816;2022-07-29T04:42:46;11.70;;;5.83;;
2456;SDS011;1240;48.018;7.816;2022-07-29T04:45:11;5.53;;;5.13;;
2456;SDS011;1240;48.018;7.816;2022-07-29T04:47:36;6.37;;;5.87;;
2456;SDS011;1240;48.018;7.816;2022-07-29T04:50:02;4.65;;;4.32;;
2456;SDS011;1240;48.018;7.816;2022-07-29T04:52:27;6.43;;;5.67;;
2456;SDS011;1240;48.018;7.816;2022-07-29T04:54:52;5.97;;;5.35;;
2456;SDS011;1240;48.018;7.816;2022-07-29T04:57:17;5.70;;;5.30;;
2456;SDS011;1240;48.018;7.816;2022-07-29T04:59:42;10.90;;;5.37;;
2456;SDS011;1240;48.018;7.816;2022-07-29T05:02:08;4.70;;;4.30;;
2456;SDS011;1240;48.018;7.816;2022-07-29T05:04:33;6.32;;;5.63;;
2456;SDS011;1240;48.018;7.816;2022-07-29T05:06:58;5.72;;;5.32;;
2456;SDS011;1240;48.018;7.816;2022-07-29T05:09:23;5.70;;;5.20;;
2456;SDS011;1240;48.018;7.816;2022-07-29T05:11:48;6.32;;;5.75;;
2456;SDS011;1240;48.018;7.816;2022-07-29T05:14:13;7.17;;;6.57;;
2456;SDS011;1240;48.018;7.816;2022-07-29T05:16:38;6.20;;;5.70;;
2456;SDS011;1240;48.018;7.816;2022-07-29T05:19:04;8.85;;;6.07;;
2456;SDS011;1240;48.018;7.816;2022-07-29T05:21:29;5.57;;;5.03;;
2456;SDS011;1240;48.018;7.816;2022-07-29T05:23:54;5.38;;;4.88;;
2456;SDS011;1240;48.018;7.816;2022-07-29T05:26:19;7.10;;;6.00;;
2456;SDS011;1240;48.018;7.816;2022-07-29T05:28:44;6.15;;;5.55;;
2456;SDS011;1240;48.018;7.816;2022-07-29T05:31:09;5.57;;;5.07;;
2456;SDS011;1240;48.018;7.816;2022-07-29T05:33:34;8.13;;;5.10;;
2456;SDS011;1240;48.018;7.816;2022-07-29T05:36:00;5.43;;;4.93;;
2456;SDS011;1240;48.018;7.816;2022-07-29T05:38:25;5.53;;;5.07;;
2456;SDS011;1240;48.018;7.816;2022-07-29T05:40:50;5.17;;;4.77;;
2456;SDS011;1240;48.018;7.816;2022-07-29T05:43:15;5.60;;;5.10;;
2456;SDS011;1240;48.018;7.816;2022-07-29T05:45:40;7.10;;;5.83;;
2456;SDS011;1240;48.018;7.816;2022-07-29T05:48:05;5.43;;;4.93;;
2456;SDS011;1240;48.018;7.816;2022-07-29T05:50:30;5.78;;;5.25;;
2456;SDS011;1240;48.018;7.816;2022-07-29T05:52:56;5.17;;;4.77;;
2456;SDS011;1240;48.018;7.816;2022-07-29T05:55:21;5.70;;;5.20;;
2456;SDS011;1240;48.018;7.816;2022-07-29T05:57:46;6.03;;;5.17;;
2456;SDS011;1240;48.018;7.816;2022-07-29T06:00:11;5.75;;;5.15;;
2456;SDS011;1240;48.018;7.816;2022-07-29T06:02:37;6.83;;;4.87;;
2456;SDS011;1240;48.018;7.816;2022-07-29T06:05:02;5.45;;;4.90;;
2456;SDS011;1240;48.018;7.816;2022-07-29T06:07:27;4.90;;;4.40;;
2456;SDS011;1240;48.018;7.816;2022-07-29T06:09:52;5.17;;;4.77;;
2456;SDS011;1240;48.018;7.816;2022-07-29T06:12:17;5.00;;;4.68;;
2456;SDS011;1240;48.018;7.816;2022-07-29T06:14:42;5.37;;;4.93;;
2456;SDS011;1240;48.018;7.816;2022-07-29T06:17:08;4.70;;;4.30;;
2456;SDS011;1240;48.018;7.816;2022-07-29T06:19:36;5.43;;;4.97;;
2456;SDS011;1240;48.018;7.816;2022-07-29T06:22:01;5.10;;;4.70;;
2456;SDS011;1240;48.018;7.816;2022-07-29T06:24:26;5.50;;;5.00;;
2456;SDS011;1240;48.018;7.816;2022-07-29T06:26:51;14.70;;;5.53;;
2456;SDS011;1240;48.018;7.816;2022-07-29T06:29:16;4.87;;;4.53;;
2456;SDS011;1240;48.018;7.816;2022-07-29T06:31:41;4.53;;;4.23;;
2456;SDS011;1240;48.018;7.816;2022-07-29T06:34:07;4.10;;;3.80;;
2456;SDS011;1240;48.018;7.816;2022-07-29T06:36:34;5.33;;;4.83;;
2456;SDS011;1240;48.018;7.816;2022-07-29T06:38:59;4.63;;;4.23;;
2456;SDS011;1240;48.018;7.816;2022-07-29T06:41:24;3.85;;;3.55;;
2456;SDS011;1240;48.018;7.816;2022-07-29T06:43:49;5.13;;;4.73;;
2456;SDS011;1240;48.018;7.816;2022-07-29T06:46:15;3.97;;;3.58;;
2456;SDS011;1240;48.018;7.816;2022-07-29T06:48:41;4.90;;;4.47;;
2456;SDS011;1240;48.018;7.816;2022-07-29T06:51:06;6.80;;;4.30;;
2456;SDS011;1240;48.018;7.816;2022-07-29T06:53:32;5.22;;;4.00;;
2456;SDS011;1240;48.018;7.816;2022-07-29T06:55:57;6.90;;;4.40;;
2456;SDS011;1240;48.018;7.816;2022-07-29T06:58:23;6.27;;;3.53;;
2456;SDS011;1240;48.018;7.816;2022-07-29T07:00:48;4.40;;;3.47;;
2456;SDS011;1240;48.018;7.816;2022-07-29T07:03:14;4.57;;;4.18;;
2456;SDS011;1240;48.018;7.816;2022-07-29T07:05:39;4.47;;;4.17;;
2456;SDS011;1240;48.018;7.816;2022-07-29T07:08:05;4.43;;;4.00;;
2456;SDS011;1240;48.018;7.816;2022-07-29T07:10:30;6.13;;;4.07;;
2456;SDS011;1240;48.018;7.816;2022-07-29T07:12:55;4.00;;;3.70;;
2456;SDS011;1240;48.018;7.816;2022-07-29T07:15:20;4.18;;;3.88;;
2456;SDS011;1240;48.018;7.816;2022-07-29T07:17:45;8.70;;;3.83;;
2456;SDS011;1240;48.018;7.816;2022-07-29T07:20:11;7.97;;;3.45;;
2456;SDS011;1240;48.018;7.816;2022-07-29T07:22:36;4.07;;;3.75;;
2456;SDS011;1240;48.018;7.816;2022-07-29T07:25:01;4.55;;;3.95;;
2456;SDS011;1240;48.018;7.816;2022-07-29T07:27:26;4.23;;;3.83;;
2456;SDS011;1240;48.018;7.816;2022-07-29T07:29:51;5.83;;;4.27;;
2456;SDS011;1240;48.018;7.816;2022-07-29T07:32:16;5.70;;;3.55;;
2456;SDS011;1240;48.018;7.816;2022-07-29T07:34:42;5.35;;;3.42;;
2456;SDS011;1240;48.018;7.816;2022-07-29T07:37:07;4.27;;;3.90;;
2456;SDS011;1240;48.018;7.816;2022-07-29T07:39:32;8.93;;;4.20;;
2456;SDS011;1240;48.018;7.816;2022-07-29T07:41:58;5.30;;;4.65;;
2456;SDS011;1240;48.018;7.816;2022-07-29T07:44:23;5.50;;;3.47;;
2456;SDS011;1240;48.018;7.816;2022-07-29T07:46:48;5.03;;;4.25;;
2456;SDS011;1240;48.018;7.816;2022-07-29T07:49:13;10.10;;;3.80;;
2456;SDS011;1240;48.018;7.816;2022-07-29T07:51:39;9.43;;;4.30;;
2456;SDS011;1240;48.018;7.816;2022-07-29T07:54:04;5.07;;;4.60;;
2456;SDS011;1240;48.018;7.816;2022-07-29T07:56:29;4.20;;;3.80;;
2456;SDS011;1240;48.018;7.816;2022-07-29T07:58:54;5.68;;;3.65;;
2456;SDS011;1240;48.018;7.816;2022-07-29T08:01:19;10.50;;;3.77;;
2456;SDS011;1240;48.018;7.816;2022-07-29T08:03:44;5.85;;;5.05;;
2456;SDS011;1240;48.018;7.816;2022-07-29T08:06:09;4.70;;;3.90;;
2456;SDS011;1240;48.018;7.816;2022-07-29T08:08:35;4.78;;;4.38;;
2456;SDS011;1240;48.018;7.816;2022-07-29T08:11:00;6.00;;;4.72;;
2456;SDS011;1240;48.018;7.816;2022-07-29T08:13:26;5.57;;;3.83;;
2456;SDS011;1240;48.018;7.816;2022-07-29T08:15:51;5.37;;;4.43;;
2456;SDS011;1240;48.018;7.816;2022-07-29T08:18:16;3.90;;;3.42;;
2456;SDS011;1240;48.018;7.816;2022-07-29T08:20:41;4.53;;;4.18;;
2456;SDS011;1240;48.018;7.816;2022-07-29T08:23:07;6.47;;;3.90;;
2456;SDS011;1240;48.018;7.816;2022-07-29T08:25:32;5.40;;;3.23;;
2456;SDS011;1240;48.018;7.816;2022-07-29T08:27:57;4.45;;;3.88;;
2456;SDS011;1240;48.018;7.816;2022-07-29T08:30:23;3.80;;;3.50;;
2456;SDS011;1240;48.018;7.816;2022-07-29T08:32:48;8.94;;;3.79;;
2456;SDS011;1240;48.018;7.816;2022-07-29T08:35:13;9.63;;;4.17;;
2456;SDS011;1240;48.018;7.816;2022-07-29T08:37:38;5.00;;;3.87;;
2456;SDS011;1240;48.018;7.816;2022-07-29T08:40:03;5.57;;;3.33;;
2456;SDS011;1240;48.018;7.816;2022-07-29T08:42:29;4.53;;;3.00;;
2456;SDS011;1240;48.018;7.816;2022-07-29T08:44:55;4.77;;;3.53;;
2456;SDS011;1240;48.018;7.816;2022-07-29T08:47:20;3.80;;;3.50;;
2456;SDS011;1240;48.018;7.816;2022-07-29T08:49:45;3.40;;;3.03;;
2456;SDS011;1240;48.018;7.816;2022-07-29T08:52:10;6.30;;;3.70;;
2456;SDS011;1240;48.018;7.816;2022-07-29T08:54:36;7.30;;;3.60;;
2456;SDS011;1240;48.018;7.816;2022-07-29T08:57:01;6.53;;;3.20;;
2456;SDS011;1240;48.018;7.816;2022-07-29T08:59:27;6.50;;;3.10;;
2456;SDS011;1240;48.018;7.816;2022-07-29T09:01:52;7.73;;;3.17;;
2456;SDS011;1240;48.018;7.816;2022-07-29T09:04:17;3.40;;;2.90;;
2456;SDS011;1240;48.018;7.816;2022-07-29T09:06:44;3.63;;;3.33;;
2456;SDS011;1240;48.018;7.816;2022-07-29T09:09:11;10.00;;;3.00;;
2456;SDS011;1240;48.018;7.816;2022-07-29T09:11:36;3.63;;;3.10;;
2456;SDS011;1240;48.018;7.816;2022-07-29T09:14:01;5.10;;;3.30;;
2456;SDS011;1240;48.018;7.816;2022-07-29T09:16:42;3.33;;;2.90;;
2456;SDS011;1240;48.018;7.816;2022-07-29T09:19:24;6.73;;;2.90;;
2456;SDS011;1240;48.018;7.816;2022-07-29T09:21:50;3.73;;;3.53;;
2456;SDS011;1240;48.018;7.816;2022-07-29T09:24:15;2.60;;;2.40;;
2456;SDS011;1240;48.018;7.816;2022-07-29T09:26:41;3.13;;;2.90;;
2456;SDS011;1240;48.018;7.816;2022-07-29T09:29:07;3.60;;;3.23;;
2456;SDS011;1240;48.018;7.816;2022-07-29T09:31:34;5.60;;;2.93;;
2456;SDS011;1240;48.018;7.816;2022-07-29T09:33:59;9.63;;;3.83;;
2456;SDS011;1240;48.018;7.816;2022-07-29T09:36:24;4.50;;;4.20;;
2456;SDS011;1240;48.018;7.816;2022-07-29T09:38:56;2.70;;;2.37;;
2456;SDS011;1240;48.018;7.816;2022-07-29T09:41:22;8.20;;;3.37;;
2456;SDS011;1240;48.018;7.816;2022-07-29T09:43:54;3.00;;;2.80;;
2456;SDS011;1240;48.018;7.816;2022-07-29T09:46:19;3.17;;;2.73;;
2456;SDS011;1240;48.018;7.816;2022-07-29T09:48:44;4.37;;;2.93;;
2456;SDS011;1240;48.018;7.816;2022-07-29T09:51:19;3.13;;;2.88;;
2456;SDS011;1240;48.018;7.816;2022-07-29T09:53:44;3.23;;;2.93;;
2456;SDS011;1240;48.018;7.816;2022-07-29T09:56:09;3.77;;;2.57;;
2456;SDS011;1240;48.018;7.816;2022-07-29T09:58:34;3.00;;;2.80;;
2456;SDS011;1240;48.018;7.816;2022-07-29T10:00:59;6.75;;;2.88;;
2456;SDS011;1240;48.018;7.816;2022-07-29T10:03:25;2.60;;;2.50;;
2456;SDS011;1240;48.018;7.816;2022-07-29T10:06:06;3.70;;;3.33;;
2456;SDS011;1240;48.018;7.816;2022-07-29T10:08:31;7.30;;;2.87;;
2456;SDS011;1240;48.018;7.816;2022-07-29T10:11:12;4.27;;;2.97;;
2456;SDS011;1240;48.018;7.816;2022-07-29T10:13:38;4.70;;;2.97;;
2456;SDS011;1240;48.018;7.816;2022-07-29T10:16:03;3.93;;;3.40;;
2456;SDS011;1240;48.018;7.816;2022-07-29T10:18:29;2.80;;;2.60;;
2456;SDS011;1240;48.018;7.816;2022-07-29T10:20:54;2.80;;;2.60;;
2456;SDS011;1240;48.018;7.816;2022-07-29T10:23:20;4.60;;;3.17;;
2456;SDS011;1240;48.018;7.816;2022-07-29T10:25:45;3.37;;;3.03;;
2456;SDS011;1240;48.018;7.816;2022-07-29T10:28:11;2.53;;;2.20;;
2456;SDS011;1240;48.018;7.816;2022-07-29T10:30:36;2.77;;;2.57;;
2456;SDS011;1240;48.018;7.816;2022-07-29T10:33:10;2.47;;;2.23;;
2456;SDS011;1240;48.018;7.816;2022-07-29T10:43:19;3.78;;;2.90;;
2456;SDS011;1240;48.018;7.816;2022-07-29T10:45:46;11.47;;;3.30;;
2456;SDS011;1240;48.018;7.816;2022-07-29T10:48:12;3.30;;;3.00;;
2456;SDS011;1240;48.018;7.816;2022-07-29T10:51:11;4.20;;;2.40;;
2456;SDS011;1240;48.018;7.816;2022-07-29T11:01:44;5.63;;;3.00;;
2456;SDS011;1240;48.018;7.816;2022-07-29T11:04:10;2.87;;;2.67;;
2456;SDS011;1240;48.018;7.816;2022-07-29T11:09:19;2.70;;;2.50;;
2456;SDS011;1240;48.018;7.816;2022-07-29T11:11:44;2.00;;;1.90;;
2456;SDS011;1240;48.018;7.816;2022-07-29T11:14:09;2.50;;;2.40;;
2456;SDS011;1240;48.018;7.816;2022-07-29T11:19:35;3.57;;;2.27;;
2456;SDS011;1240;48.018;7.816;2022-07-29T11:22:00;3.85;;;2.13;;
2456;SDS011;1240;48.018;7.816;2022-07-29T11:24:26;2.50;;;2.30;;
2456;SDS011;1240;48.018;7.816;2022-07-29T11:29:36;2.43;;;2.30;;
2456;SDS011;1240;48.018;7.816;2022-07-29T11:32:11;2.90;;;2.63;;
2456;SDS011;1240;48.018;7.816;2022-07-29T11:34:36;4.23;;;2.57;;
2456;SDS011;1240;48.018;7.816;2022-07-29T11:39:33;4.03;;;2.53;;
2456;SDS011;1240;48.018;7.816;2022-07-29T11:47:21;2.57;;;2.47;;
2456;SDS011;1240;48.018;7.816;2022-07-29T11:49:46;2.97;;;2.70;;
2456;SDS011;1240;48.018;7.816;2022-07-29T11:52:12;3.33;;;2.37;;
2456;SDS011;1240;48.018;7.816;2022-07-29T11:54:37;3.33;;;2.20;;
2456;SDS011;1240;48.018;7.816;2022-07-29T11:57:09;3.97;;;2.47;;
2456;SDS011;1240;48.018;7.816;2022-07-29T11:59:41;2.73;;;2.20;;
2456;SDS011;1240;48.018;7.816;2022-07-29T12:02:06;1.80;;;1.70;;
2456;SDS011;1240;48.018;7.816;2022-07-29T12:04:31;2.37;;;2.27;;
2456;SDS011;1240;48.018;7.816;2022-07-29T12:06:56;2.27;;;2.07;;
2456;SDS011;1240;48.018;7.816;2022-07-29T12:09:22;2.27;;;2.07;;
2456;SDS011;1240;48.018;7.816;2022-07-29T12:11:48;2.23;;;2.03;;
2456;SDS011;1240;48.018;7.816;2022-07-29T12:17:09;1.97;;;1.87;;
2456;SDS011;1240;48.018;7.816;2022-07-29T12:19:49;3.60;;;2.53;;
2456;SDS011;1240;48.018;7.816;2022-07-29T12:22:14;2.97;;;2.60;;
2456;SDS011;1240;48.018;7.816;2022-07-29T12:24:49;2.73;;;2.07;;
2456;SDS011;1240;48.018;7.816;2022-07-29T12:27:16;2.00;;;1.90;;
2456;SDS011;1240;48.018;7.816;2022-07-29T12:29:41;2.40;;;2.07;;
2456;SDS011;1240;48.018;7.816;2022-07-29T12:32:06;2.40;;;2.23;;
2456;SDS011;1240;48.018;7.816;2022-07-29T12:34:32;2.40;;;2.30;;
2456;SDS011;1240;48.018;7.816;2022-07-29T12:36:57;2.43;;;2.17;;
2456;SDS011;1240;48.018;7.816;2022-07-29T12:39:22;2.47;;;2.27;;
2456;SDS011;1240;48.018;7.816;2022-07-29T12:41:48;6.33;;;2.10;;
2456;SDS011;1240;48.018;7.816;2022-07-29T12:44:13;2.53;;;2.27;;
2456;SDS011;1240;48.018;7.816;2022-07-29T12:46:38;2.80;;;1.80;;
2456;SDS011;1240;48.018;7.816;2022-07-29T12:49:03;1.80;;;1.70;;
2456;SDS011;1240;48.018;7.816;2022-07-29T12:51:29;2.13;;;2.03;;
2456;SDS011;1240;48.018;7.816;2022-07-29T12:54:02;3.63;;;2.10;;
2456;SDS011;1240;48.018;7.816;2022-07-29T12:56:27;2.10;;;1.90;;
2456;SDS011;1240;48.018;7.816;2022-07-29T12:58:52;2.10;;;2.00;;
2456;SDS011;1240;48.018;7.816;2022-07-29T13:01:18;2.03;;;1.60;;
2456;SDS011;1240;48.018;7.816;2022-07-29T13:09:19;2.13;;;2.03;;
2456;SDS011;1240;48.018;7.816;2022-07-29T13:11:45;2.17;;;2.07;;
2456;SDS011;1240;48.018;7.816;2022-07-29T13:14:11;2.27;;;2.17;;
2456;SDS011;1240;48.018;7.816;2022-07-29T13:16:40;2.20;;;2.10;;
2456;SDS011;1240;48.018;7.816;2022-07-29T13:19:31;1.77;;;1.67;;
2456;SDS011;1240;48.018;7.816;2022-07-29T13:21:57;2.10;;;2.00;;
2456;SDS011;1240;48.018;7.816;2022-07-29T13:24:22;2.28;;;2.05;;
2456;SDS011;1240;48.018;7.816;2022-07-29T13:26:47;1.80;;;1.70;;
2456;SDS011;1240;48.018;7.816;2022-07-29T13:29:12;1.90;;;1.80;;
2456;SDS011;1240;48.018;7.816;2022-07-29T13:31:37;1.50;;;1.30;;
2456;SDS011;1240;48.018;7.816;2022-07-29T13:34:02;2.17;;;1.97;;
2456;SDS011;1240;48.018;7.816;2022-07-29T13:36:28;2.33;;;2.05;;
2456;SDS011;1240;48.018;7.816;2022-07-29T13:38:53;3.00;;;1.80;;
2456;SDS011;1240;48.018;7.816;2022-07-29T13:41:18;3.17;;;1.90;;
2456;SDS011;1240;48.018;7.816;2022-07-29T13:43:43;1.73;;;1.63;;
2456;SDS011;1240;48.018;7.816;2022-07-29T13:46:08;3.85;;;1.73;;
2456;SDS011;1240;48.018;7.816;2022-07-29T13:48:33;1.97;;;1.87;;
2456;SDS011;1240;48.018;7.816;2022-07-29T13:50:58;1.97;;;1.87;;
2456;SDS011;1240;48.018;7.816;2022-07-29T13:53:24;3.20;;;2.50;;
2456;SDS011;1240;48.018;7.816;2022-07-29T13:55:49;2.67;;;2.47;;
2456;SDS011;1240;48.018;7.816;2022-07-29T13:58:14;4.03;;;2.70;;
2456;SDS011;1240;48.018;7.816;2022-07-29T14:00:39;3.10;;;2.50;;
2456;SDS011;1240;48.018;7.816;2022-07-29T14:03:04;2.57;;;2.37;;
2456;SDS011;1240;48.018;7.816;2022-07-29T14:05:29;3.38;;;2.35;;
2456;SDS011;1240;48.018;7.816;2022-07-29T14:07:55;4.90;;;2.25;;
2456;SDS011;1240;48.018;7.816;2022-07-29T14:10:20;4.95;;;2.13;;
2456;SDS011;1240;48.018;7.816;2022-07-29T14:12:45;2.83;;;2.43;;
2456;SDS011;1240;48.018;7.816;2022-07-29T14:15:10;5.15;;;2.58;;
2456;SDS011;1240;48.018;7.816;2022-07-29T14:17:35;2.87;;;2.30;;
2456;SDS011;1240;48.018;7.816;2022-07-29T14:20:00;2.88;;;2.30;;
2456;SDS011;1240;48.018;7.816;2022-07-29T14:22:25;4.70;;;2.83;;
2456;SDS011;1240;48.018;7.816;2022-07-29T14:24:51;4.30;;;2.53;;
2456;SDS011;1240;48.018;7.816;2022-07-29T14:27:16;2.53;;;2.33;;
2456;SDS011;1240;48.018;7.816;2022-07-29T14:29:41;5.37;;;2.23;;
2456;SDS011;1240;48.018;7.816;2022-07-29T14:32:07;2.20;;;2.10;;
2456;SDS011;1240;48.018;7.816;2022-07-29T14:34:33;2.30;;;2.10;;
2456;SDS011;1240;48.018;7.816;2022-07-29T14:36:58;2.60;;;2.40;;
2456;SDS011;1240;48.018;7.816;2022-07-29T14:39:23;6.75;;;2.20;;
2456;SDS011;1240;48.018;7.816;2022-07-29T14:41:49;4.07;;;2.50;;
2456;SDS011;1240;48.018;7.816;2022-07-29T14:44:14;2.40;;;2.20;;
2456;SDS011;1240;48.018;7.816;2022-07-29T14:46:39;2.43;;;1.80;;
2456;SDS011;1240;48.018;7.816;2022-07-29T14:49:04;2.50;;;2.17;;
2456;SDS011;1240;48.018;7.816;2022-07-29T14:51:29;2.75;;;1.70;;
2456;SDS011;1240;48.018;7.816;2022-07-29T14:53:55;2.10;;;2.00;;
2456;SDS011;1240;48.018;7.816;2022-07-29T14:56:20;4.05;;;2.92;;
2456;SDS011;1240;48.018;7.816;2022-07-29T14:58:45;2.85;;;2.10;;
2456;SDS011;1240;48.018;7.816;2022-07-29T15:01:10;4.85;;;1.90;;
2456;SDS011;1240;48.018;7.816;2022-07-29T15:03:35;1.58;;;1.48;;
2456;SDS011;1240;48.018;7.816;2022-07-29T15:06:00;5.57;;;2.20;;
2456;SDS011;1240;48.018;7.816;2022-07-29T15:08:25;4.05;;;1.98;;
2456;SDS011;1240;48.018;7.816;2022-07-29T15:10:51;2.00;;;1.50;;
2456;SDS011;1240;48.018;7.816;2022-07-29T15:13:16;2.60;;;1.63;;
2456;SDS011;1240;48.018;7.816;2022-07-29T15:15:41;2.37;;;2.17;;
2456;SDS011;1240;48.018;7.816;2022-07-29T15:18:06;2.53;;;2.28;;
2456;SDS011;1240;48.018;7.816;2022-07-29T15:20:31;3.60;;;2.00;;
2456;SDS011;1240;48.018;7.816;2022-07-29T15:22:56;2.73;;;1.90;;
2456;SDS011;1240;48.018;7.816;2022-07-29T15:25:22;1.73;;;1.63;;
2456;SDS011;1240;48.018;7.816;2022-07-29T15:27:47;1.50;;;1.40;;
2456;SDS011;1240;48.018;7.816;2022-07-29T15:30:12;2.47;;;1.70;;
2456;SDS011;1240;48.018;7.816;2022-07-29T15:32:38;2.45;;;1.33;;
2456;SDS011;1240;48.018;7.816;2022-07-29T15:35:03;1.73;;;1.63;;
2456;SDS011;1240;48.018;7.816;2022-07-29T15:37:28;4.63;;;1.70;;
2456;SDS011;1240;48.018;7.816;2022-07-29T15:39:53;2.60;;;1.53;;
2456;SDS011;1240;48.018;7.816;2022-07-29T15:42:19;1.97;;;1.63;;
2456;SDS011;1240;48.018;7.816;2022-07-29T15:44:44;2.10;;;1.63;;
2456;SDS011;1240;48.018;7.816;2022-07-29T15:47:09;2.60;;;1.70;;
2456;SDS011;1240;48.018;7.816;2022-07-29T15:49:38;1.27;;;1.17;;
2456;SDS011;1240;48.018;7.816;2022-07-29T15:52:05;2.50;;;1.80;;
2456;SDS011;1240;48.018;7.816;2022-07-29T15:54:30;4.17;;;2.37;;
2456;SDS011;1240;48.018;7.816;2022-07-29T15:56:55;3.10;;;1.43;;
2456;SDS011;1240;48.018;7.816;2022-07-29T15:59:21;3.17;;;1.40;;